sensor_id;sensor_type;location;lat;lon;timestamp;pressure;altitude;pressure_sealevel;temperature;humidity
36630;BME280;36256;42.154;23.002;2023-04-04T00:00:23;95803.69;;;8.29;100.00
36630;BME280;36256;42.154;23.002;2023-04-04T00:02:50;95812.09;;;8.20;100.00
36630;BME280;36256;42.154;23.002;2023-04-04T00:05:17;95812.56;;;8.18;100.00
36630;BME280;36256;42.154;23.002;2023-04-04T00:07:46;95811.16;;;8.23;100.00
36630;BME280;36256;42.154;23.002;2023-04-04T00:10:14;95808.97;;;8.27;100.00
36630;BME280;36256;42.154;23.002;2023-04-04T00:12:41;95811.34;;;8.19;100.00
36630;BME280;36256;42.154;23.002;2023-04-04T00:15:09;95822.06;;;8.12;100.00
36630;BME280;36256;42.154;23.002;2023-04-04T00:17:35;95828.00;;;8.05;100.00
36630;BME280;36256;42.154;23.002;2023-04-04T00:20:02;95836.25;;;7.99;100.00
36630;BME280;36256;42.154;23.002;2023-04-04T00:22:29;95825.69;;;8.03;100.00
36630;BME280;36256;42.154;23.002;2023-04-04T00:24:57;95822.84;;;8.12;100.00
36630;BME280;36256;42.154;23.002;2023-04-04T00:27:24;95804.09;;;8.04;100.00
36630;BME280;36256;42.154;23.002;2023-04-04T00:29:51;95804.09;;;8.04;100.00
36630;BME280;36256;42.154;23.002;2023-04-04T00:32:18;95800.75;;;8.23;100.00
36630;BME280;36256;42.154;23.002;2023-04-04T00:34:45;95773.25;;;8.31;100.00
36630;BME280;36256;42.154;23.002;2023-04-04T00:37:12;95768.72;;;8.57;100.00
36630;BME280;36256;42.154;23.002;2023-04-04T00:39:38;95761.81;;;8.67;100.00
36630;BME280;36256;42.154;23.002;2023-04-04T00:42:05;95748.34;;;8.80;100.00
36630;BME280;36256;42.154;23.002;2023-04-04T00:44:33;95732.72;;;8.88;100.00
36630;BME280;36256;42.154;23.002;2023-04-04T00:47:03;95707.75;;;8.99;100.00
36630;BME280;36256;42.154;23.002;2023-04-04T00:49:29;95708.63;;;9.05;100.00
36630;BME280;36256;42.154;23.002;2023-04-04T00:51:56;95714.00;;;9.09;100.00
36630;BME280;36256;42.154;23.002;2023-04-04T00:54:23;95721.91;;;9.10;100.00
36630;BME280;36256;42.154;23.002;2023-04-04T00:56:50;95730.59;;;9.12;100.00
36630;BME280;36256;42.154;23.002;2023-04-04T00:59:25;95742.47;;;9.07;100.00
36630;BME280;36256;42.154;23.002;2023-04-04T01:01:53;95737.16;;;9.09;100.00
36630;BME280;36256;42.154;23.002;2023-04-04T01:04:20;95730.91;;;9.14;100.00
36630;BME280;36256;42.154;23.002;2023-04-04T01:06:47;95739.88;;;9.18;100.00
36630;BME280;36256;42.154;23.002;2023-04-04T01:09:15;95729.72;;;9.21;100.00
36630;BME280;36256;42.154;23.002;2023-04-04T01:11:42;95727.03;;;9.26;100.00
36630;BME280;36256;42.154;23.002;2023-04-04T01:14:10;95716.72;;;9.32;100.00
36630;BME280;36256;42.154;23.002;2023-04-04T01:16:36;95712.97;;;9.35;100.00
36630;BME280;36256;42.154;23.002;2023-04-04T01:19:04;95709.94;;;9.39;100.00
36630;BME280;36256;42.154;23.002;2023-04-04T01:21:34;95705.31;;;9.36;100.00
36630;BME280;36256;42.154;23.002;2023-04-04T01:24:02;95686.59;;;9.27;100.00
36630;BME280;36256;42.154;23.002;2023-04-04T01:26:30;95704.84;;;9.37;100.00
36630;BME280;36256;42.154;23.002;2023-04-04T01:28:58;95709.16;;;9.38;100.00
36630;BME280;36256;42.154;23.002;2023-04-04T01:31:32;95707.44;;;9.41;100.00
36630;BME280;36256;42.154;23.002;2023-04-04T01:34:13;95701.63;;;9.44;100.00
36630;BME280;36256;42.154;23.002;2023-04-04T01:37:00;95697.88;;;9.47;100.00
36630;BME280;36256;42.154;23.002;2023-04-04T01:39:38;95708.50;;;9.43;100.00
36630;BME280;36256;42.154;23.002;2023-04-04T01:42:08;95706.16;;;9.42;100.00
36630;BME280;36256;42.154;23.002;2023-04-04T01:44:35;95708.22;;;9.41;100.00
36630;BME280;36256;42.154;23.002;2023-04-04T01:47:05;95709.56;;;9.46;100.00
36630;BME280;36256;42.154;23.002;2023-04-04T01:49:33;95712.16;;;9.49;100.00
36630;BME280;36256;42.154;23.002;2023-04-04T01:52:01;95712.53;;;9.42;100.00
36630;BME280;36256;42.154;23.002;2023-04-04T01:54:28;95710.03;;;9.44;100.00
36630;BME280;36256;42.154;23.002;2023-04-04T01:56:56;95700.09;;;9.43;100.00
36630;BME280;36256;42.154;23.002;2023-04-04T01:59:23;95706.16;;;9.42;100.00
36630;BME280;36256;42.154;23.002;2023-04-04T02:01:49;95705.50;;;9.32;100.00
36630;BME280;36256;42.154;23.002;2023-04-04T02:04:16;95706.09;;;9.36;100.00
36630;BME280;36256;42.154;23.002;2023-04-04T02:06:43;95715.75;;;9.35;100.00
36630;BME280;36256;42.154;23.002;2023-04-04T02:09:09;95720.38;;;9.38;100.00
36630;BME280;36256;42.154;23.002;2023-04-04T02:11:36;95714.56;;;9.42;100.00
36630;BME280;36256;42.154;23.002;2023-04-04T02:14:03;95702.72;;;9.32;100.00
36630;BME280;36256;42.154;23.002;2023-04-04T02:16:30;95713.81;;;9.41;100.00
36630;BME280;36256;42.154;23.002;2023-04-04T02:18:56;95711.69;;;9.36;100.00
36630;BME280;36256;42.154;23.002;2023-04-04T02:21:23;95710.16;;;9.35;100.00
36630;BME280;36256;42.154;23.002;2023-04-04T02:23:52;95681.00;;;9.27;100.00
36630;BME280;36256;42.154;23.002;2023-04-04T02:26:19;95703.50;;;9.33;100.00
36630;BME280;36256;42.154;23.002;2023-04-04T02:28:46;95705.72;;;9.29;100.00
36630;BME280;36256;42.154;23.002;2023-04-04T02:31:13;95694.97;;;9.27;100.00
36630;BME280;36256;42.154;23.002;2023-04-04T02:33:39;95697.22;;;9.23;100.00
36630;BME280;36256;42.154;23.002;2023-04-04T02:36:06;95692.59;;;9.20;100.00
36630;BME280;36256;42.154;23.002;2023-04-04T02:38:33;95698.00;;;9.24;100.00
36630;BME280;36256;42.154;23.002;2023-04-04T02:41:00;95698.78;;;9.24;100.00
36630;BME280;36256;42.154;23.002;2023-04-04T02:43:27;95697.03;;;9.27;100.00
36630;BME280;36256;42.154;23.002;2023-04-04T02:45:53;95705.31;;;9.21;100.00
36630;BME280;36256;42.154;23.002;2023-04-04T02:48:20;95699.72;;;9.21;100.00
36630;BME280;36256;42.154;23.002;2023-04-04T02:50:47;95709.38;;;9.20;100.00
36630;BME280;36256;42.154;23.002;2023-04-04T02:53:14;95709.56;;;9.17;100.00
36630;BME280;36256;42.154;23.002;2023-04-04T02:55:41;95720.00;;;9.16;100.00
36630;BME280;36256;42.154;23.002;2023-04-04T02:58:08;95712.00;;;9.09;100.00
36630;BME280;36256;42.154;23.002;2023-04-04T03:00:34;95712.94;;;9.06;100.00
36630;BME280;36256;42.154;23.002;2023-04-04T03:03:01;95709.84;;;9.04;100.00
36630;BME280;36256;42.154;23.002;2023-04-04T03:05:28;95710.53;;;8.99;100.00
36630;BME280;36256;42.154;23.002;2023-04-04T03:07:56;95717.09;;;8.96;100.00
36630;BME280;36256;42.154;23.002;2023-04-04T03:10:24;95714.00;;;8.94;100.00
36630;BME280;36256;42.154;23.002;2023-04-04T03:12:51;95710.72;;;8.81;100.00
36630;BME280;36256;42.154;23.002;2023-04-04T03:15:18;95722.88;;;8.78;100.00
36630;BME280;36256;42.154;23.002;2023-04-04T03:17:45;95712.94;;;8.77;100.00
36630;BME280;36256;42.154;23.002;2023-04-04T03:20:12;95718.53;;;8.77;100.00
36630;BME280;36256;42.154;23.002;2023-04-04T03:22:41;95717.56;;;8.80;100.00
36630;BME280;36256;42.154;23.002;2023-04-04T03:25:08;95711.09;;;8.74;100.00
36630;BME280;36256;42.154;23.002;2023-04-04T03:27:34;95708.59;;;8.76;100.00
36630;BME280;36256;42.154;23.002;2023-04-04T03:30:02;95704.16;;;8.69;100.00
36630;BME280;36256;42.154;23.002;2023-04-04T03:32:29;95719.78;;;8.76;100.00
36630;BME280;36256;42.154;23.002;2023-04-04T03:34:55;95718.91;;;8.70;100.00
36630;BME280;36256;42.154;23.002;2023-04-04T03:37:22;95727.31;;;8.70;100.00
36630;BME280;36256;42.154;23.002;2023-04-04T03:39:49;95733.47;;;8.74;100.00
36630;BME280;36256;42.154;23.002;2023-04-04T03:42:16;95726.22;;;8.67;100.00
36630;BME280;36256;42.154;23.002;2023-04-04T03:44:43;95733.06;;;8.66;100.00
36630;BME280;36256;42.154;23.002;2023-04-04T03:47:09;95725.16;;;8.65;100.00
36630;BME280;36256;42.154;23.002;2023-04-04T03:49:36;95733.25;;;8.63;100.00
36630;BME280;36256;42.154;23.002;2023-04-04T03:52:03;95738.38;;;8.64;100.00
36630;BME280;36256;42.154;23.002;2023-04-04T03:54:30;95741.66;;;8.63;100.00
36630;BME280;36256;42.154;23.002;2023-04-04T03:56:56;95734.41;;;8.56;100.00
36630;BME280;36256;42.154;23.002;2023-04-04T03:59:23;95738.66;;;8.66;100.00
36630;BME280;36256;42.154;23.002;2023-04-04T04:01:50;95742.22;;;8.67;100.00
36630;BME280;36256;42.154;23.002;2023-04-04T04:04:17;95750.41;;;8.70;100.00
36630;BME280;36256;42.154;23.002;2023-04-04T04:06:44;95751.50;;;8.73;100.00
36630;BME280;36256;42.154;23.002;2023-04-04T04:09:10;95753.06;;;8.74;100.00
36630;BME280;36256;42.154;23.002;2023-04-04T04:11:40;95754.38;;;8.79;100.00
36630;BME280;36256;42.154;23.002;2023-04-04T04:14:06;95756.22;;;8.82;100.00
36630;BME280;36256;42.154;23.002;2023-04-04T04:16:33;95757.78;;;8.83;100.00
36630;BME280;36256;42.154;23.002;2023-04-04T04:19:00;95756.03;;;8.85;100.00
36630;BME280;36256;42.154;23.002;2023-04-04T04:21:27;95756.03;;;8.85;100.00
36630;BME280;36256;42.154;23.002;2023-04-04T04:23:54;95757.31;;;8.84;100.00
36630;BME280;36256;42.154;23.002;2023-04-04T04:26:20;95763.56;;;8.94;100.00
36630;BME280;36256;42.154;23.002;2023-04-04T04:28:47;95768.22;;;8.97;100.00
36630;BME280;36256;42.154;23.002;2023-04-04T04:31:14;95759.34;;;8.98;100.00
36630;BME280;36256;42.154;23.002;2023-04-04T04:33:41;95756.34;;;8.87;100.00
36630;BME280;36256;42.154;23.002;2023-04-04T04:36:07;95764.94;;;8.98;100.00
36630;BME280;36256;42.154;23.002;2023-04-04T04:38:34;95765.72;;;8.99;100.00
36630;BME280;36256;42.154;23.002;2023-04-04T04:41:01;95772.66;;;9.03;100.00
36630;BME280;36256;42.154;23.002;2023-04-04T04:43:27;95775.75;;;9.05;100.00
36630;BME280;36256;42.154;23.002;2023-04-04T04:45:54;95784.44;;;9.07;100.00
36630;BME280;36256;42.154;23.002;2023-04-04T04:48:21;95761.84;;;8.96;100.00
36630;BME280;36256;42.154;23.002;2023-04-04T04:50:48;95791.28;;;9.06;100.00
36630;BME280;36256;42.154;23.002;2023-04-04T04:53:15;95794.50;;;9.14;100.00
36630;BME280;36256;42.154;23.002;2023-04-04T04:55:42;95794.28;;;9.17;100.00
36630;BME280;36256;42.154;23.002;2023-04-04T04:58:09;95786.97;;;9.20;100.00
36630;BME280;36256;42.154;23.002;2023-04-04T05:00:37;95782.03;;;9.29;100.00
36630;BME280;36256;42.154;23.002;2023-04-04T05:03:04;95786.19;;;9.34;100.00
36630;BME280;36256;42.154;23.002;2023-04-04T05:05:33;95772.09;;;9.28;100.00
36630;BME280;36256;42.154;23.002;2023-04-04T05:08:01;95786.31;;;9.39;100.00
36630;BME280;36256;42.154;23.002;2023-04-04T05:10:29;95790.91;;;9.42;100.00
36630;BME280;36256;42.154;23.002;2023-04-04T05:12:56;95776.34;;;9.38;100.00
36630;BME280;36256;42.154;23.002;2023-04-04T05:15:23;95801.38;;;9.57;100.00
36630;BME280;36256;42.154;23.002;2023-04-04T05:17:54;95796.63;;;9.63;100.00
36630;BME280;36256;42.154;23.002;2023-04-04T05:20:21;95803.75;;;9.64;100.00
36630;BME280;36256;42.154;23.002;2023-04-04T05:22:48;95808.00;;;9.74;100.00
36630;BME280;36256;42.154;23.002;2023-04-04T05:25:17;95810.97;;;9.85;100.00
36630;BME280;36256;42.154;23.002;2023-04-04T05:27:48;95810.31;;;9.90;100.00
36630;BME280;36256;42.154;23.002;2023-04-04T05:30:15;95812.41;;;9.95;100.00
36630;BME280;36256;42.154;23.002;2023-04-04T05:32:45;95815.81;;;9.84;100.00
36630;BME280;36256;42.154;23.002;2023-04-04T05:35:12;95815.72;;;9.79;100.00
36630;BME280;36256;42.154;23.002;2023-04-04T05:37:39;95808.66;;;9.83;100.00
36630;BME280;36256;42.154;23.002;2023-04-04T05:40:06;95823.47;;;9.84;100.00
36630;BME280;36256;42.154;23.002;2023-04-04T05:42:33;95830.88;;;9.87;100.00
36630;BME280;36256;42.154;23.002;2023-04-04T05:45:00;95828.84;;;9.87;100.00
36630;BME280;36256;42.154;23.002;2023-04-04T05:47:27;95827.69;;;9.94;100.00
36630;BME280;36256;42.154;23.002;2023-04-04T05:49:53;95826.81;;;10.02;100.00
36630;BME280;36256;42.154;23.002;2023-04-04T05:52:20;95826.56;;;10.35;100.00
36630;BME280;36256;42.154;23.002;2023-04-04T05:54:47;95827.00;;;10.48;100.00
36630;BME280;36256;42.154;23.002;2023-04-04T05:57:13;95816.91;;;10.56;100.00
36630;BME280;36256;42.154;23.002;2023-04-04T05:59:40;95824.63;;;10.61;100.00
36630;BME280;36256;42.154;23.002;2023-04-04T06:02:06;95829.69;;;10.57;100.00
36630;BME280;36256;42.154;23.002;2023-04-04T06:04:33;95823.50;;;10.53;100.00
36630;BME280;36256;42.154;23.002;2023-04-04T06:07:00;95832.75;;;10.59;100.00
36630;BME280;36256;42.154;23.002;2023-04-04T06:09:26;95831.78;;;10.62;100.00
36630;BME280;36256;42.154;23.002;2023-04-04T06:11:53;95828.84;;;10.71;100.00
36630;BME280;36256;42.154;23.002;2023-04-04T06:14:20;95828.03;;;10.85;100.00
36630;BME280;36256;42.154;23.002;2023-04-04T06:16:46;95838.72;;;11.07;100.00
36630;BME280;36256;42.154;23.002;2023-04-04T06:19:13;95838.44;;;11.25;100.00
36630;BME280;36256;42.154;23.002;2023-04-04T06:21:40;95837.81;;;11.61;100.00
36630;BME280;36256;42.154;23.002;2023-04-04T06:24:06;95835.53;;;12.22;100.00
36630;BME280;36256;42.154;23.002;2023-04-04T06:26:33;95842.78;;;12.71;100.00
36630;BME280;36256;42.154;23.002;2023-04-04T06:28:59;95842.25;;;13.15;100.00
36630;BME280;36256;42.154;23.002;2023-04-04T06:31:26;95829.47;;;13.25;97.64
36630;BME280;36256;42.154;23.002;2023-04-04T06:33:53;95838.44;;;13.29;96.52
36630;BME280;36256;42.154;23.002;2023-04-04T06:36:19;95839.88;;;13.89;95.71
36630;BME280;36256;42.154;23.002;2023-04-04T06:38:46;95844.25;;;14.45;89.33
36630;BME280;36256;42.154;23.002;2023-04-04T06:41:13;95852.16;;;14.80;85.08
36630;BME280;36256;42.154;23.002;2023-04-04T06:43:40;95851.59;;;14.87;82.76
36630;BME280;36256;42.154;23.002;2023-04-04T06:46:06;95844.16;;;14.89;80.56
36630;BME280;36256;42.154;23.002;2023-04-04T06:48:33;95853.53;;;15.25;81.39
36630;BME280;36256;42.154;23.002;2023-04-04T06:51:00;95844.28;;;15.30;77.77
36630;BME280;36256;42.154;23.002;2023-04-04T06:53:27;95853.06;;;15.10;81.46
36630;BME280;36256;42.154;23.002;2023-04-04T06:55:53;95864.81;;;15.36;82.26
36630;BME280;36256;42.154;23.002;2023-04-04T06:58:20;95859.13;;;15.47;77.30
36630;BME280;36256;42.154;23.002;2023-04-04T07:00:47;95864.59;;;15.29;76.01
36630;BME280;36256;42.154;23.002;2023-04-04T07:03:14;95861.38;;;14.80;78.94
36630;BME280;36256;42.154;23.002;2023-04-04T07:05:40;95864.53;;;14.44;78.45
36630;BME280;36256;42.154;23.002;2023-04-04T07:08:08;95872.44;;;14.17;81.09
36630;BME280;36256;42.154;23.002;2023-04-04T07:10:35;95873.47;;;13.98;77.44
36630;BME280;36256;42.154;23.002;2023-04-04T07:13:02;95880.09;;;13.89;81.94
36630;BME280;36256;42.154;23.002;2023-04-04T07:15:29;95879.84;;;13.87;83.42
36630;BME280;36256;42.154;23.002;2023-04-04T07:17:55;95884.38;;;13.57;81.33
36630;BME280;36256;42.154;23.002;2023-04-04T07:20:22;95883.59;;;13.57;83.46
36630;BME280;36256;42.154;23.002;2023-04-04T07:22:49;95888.97;;;13.49;88.87
36630;BME280;36256;42.154;23.002;2023-04-04T07:25:16;95897.66;;;13.40;88.08
36630;BME280;36256;42.154;23.002;2023-04-04T07:27:42;95896.81;;;13.23;87.65
36630;BME280;36256;42.154;23.002;2023-04-04T07:30:10;95883.69;;;13.09;86.48
36630;BME280;36256;42.154;23.002;2023-04-04T07:32:37;95902.69;;;13.25;86.58
36630;BME280;36256;42.154;23.002;2023-04-04T07:35:04;95907.06;;;13.26;93.21
36630;BME280;36256;42.154;23.002;2023-04-04T07:37:35;95902.63;;;13.14;90.99
36630;BME280;36256;42.154;23.002;2023-04-04T07:40:04;95908.84;;;13.29;93.40
36630;BME280;36256;42.154;23.002;2023-04-04T07:42:30;95898.63;;;13.26;90.95
36630;BME280;36256;42.154;23.002;2023-04-04T07:44:57;95894.03;;;13.34;90.71
36630;BME280;36256;42.154;23.002;2023-04-04T07:47:24;95898.63;;;13.26;90.04
36630;BME280;36256;42.154;23.002;2023-04-04T07:49:50;95894.50;;;13.27;89.32
36630;BME280;36256;42.154;23.002;2023-04-04T07:52:17;95896.81;;;13.28;90.46
36630;BME280;36256;42.154;23.002;2023-04-04T07:54:43;95896.59;;;13.32;92.46
36630;BME280;36256;42.154;23.002;2023-04-04T07:57:10;95907.59;;;13.30;88.26
36630;BME280;36256;42.154;23.002;2023-04-04T07:59:37;95907.59;;;13.30;91.61
36630;BME280;36256;42.154;23.002;2023-04-04T08:02:03;95900.66;;;13.31;92.58
36630;BME280;36256;42.154;23.002;2023-04-04T08:04:30;95906.03;;;13.29;90.36
36630;BME280;36256;42.154;23.002;2023-04-04T08:06:57;95899.16;;;13.35;91.40
36630;BME280;36256;42.154;23.002;2023-04-04T08:09:23;95909.38;;;13.33;90.58
36630;BME280;36256;42.154;23.002;2023-04-04T08:11:50;95906.31;;;13.31;93.83
36630;BME280;36256;42.154;23.002;2023-04-04T08:14:18;95901.69;;;13.28;90.70
36630;BME280;36256;42.154;23.002;2023-04-04T08:16:44;95898.09;;;13.27;92.24
36630;BME280;36256;42.154;23.002;2023-04-04T08:19:11;95897.66;;;13.40;87.99
36630;BME280;36256;42.154;23.002;2023-04-04T08:21:38;95892.78;;;13.41;90.04
36630;BME280;36256;42.154;23.002;2023-04-04T08:24:05;95906.66;;;13.55;88.41
36630;BME280;36256;42.154;23.002;2023-04-04T08:26:31;95892.88;;;13.68;85.62
36630;BME280;36256;42.154;23.002;2023-04-04T08:28:58;95901.41;;;14.01;88.27
36630;BME280;36256;42.154;23.002;2023-04-04T08:31:25;95899.84;;;14.00;84.59
36630;BME280;36256;42.154;23.002;2023-04-04T08:33:52;95901.91;;;14.28;87.19
36630;BME280;36256;42.154;23.002;2023-04-04T08:36:18;95902.22;;;14.52;85.17
36630;BME280;36256;42.154;23.002;2023-04-04T08:38:45;95896.84;;;14.54;83.25
36630;BME280;36256;42.154;23.002;2023-04-04T08:41:12;95900.97;;;14.53;83.55
36630;BME280;36256;42.154;23.002;2023-04-04T08:43:43;95878.38;;;14.53;80.70
36630;BME280;36256;42.154;23.002;2023-04-04T08:46:12;95901.97;;;14.39;80.27
36630;BME280;36256;42.154;23.002;2023-04-04T08:48:41;95904.22;;;14.01;80.91
36630;BME280;36256;42.154;23.002;2023-04-04T08:51:11;95897.28;;;13.91;82.72
36630;BME280;36256;42.154;23.002;2023-04-04T08:53:40;95904.97;;;13.85;84.93
36630;BME280;36256;42.154;23.002;2023-04-04T08:56:07;95914.91;;;13.75;85.67
36630;BME280;36256;42.154;23.002;2023-04-04T08:58:34;95912.03;;;13.59;85.41
36630;BME280;36256;42.154;23.002;2023-04-04T09:01:05;95917.63;;;13.42;89.23
36630;BME280;36256;42.154;23.002;2023-04-04T09:03:33;95910.69;;;13.32;89.77
36630;BME280;36256;42.154;23.002;2023-04-04T09:06:01;95928.38;;;13.38;89.21
36630;BME280;36256;42.154;23.002;2023-04-04T09:08:28;95929.44;;;13.46;89.92
36630;BME280;36256;42.154;23.002;2023-04-04T09:10:56;95926.31;;;13.38;90.33
36630;BME280;36256;42.154;23.002;2023-04-04T09:13:23;95923.63;;;13.13;89.99
36630;BME280;36256;42.154;23.002;2023-04-04T09:15:51;95931.81;;;13.11;91.26
36630;BME280;36256;42.154;23.002;2023-04-04T09:18:21;95927.09;;;12.97;90.62
36630;BME280;36256;42.154;23.002;2023-04-04T09:20:48;95933.13;;;12.79;92.30
36630;BME280;36256;42.154;23.002;2023-04-04T09:23:19;95930.34;;;12.84;94.26
36630;BME280;36256;42.154;23.002;2023-04-04T09:28:29;95919.69;;;12.99;89.23
36630;BME280;36256;42.154;23.002;2023-04-04T09:30:56;95920.13;;;12.87;84.69
36630;BME280;36256;42.154;23.002;2023-04-04T09:33:25;95926.00;;;12.89;88.37
36630;BME280;36256;42.154;23.002;2023-04-04T09:35:58;95925.81;;;12.98;87.37
36630;BME280;36256;42.154;23.002;2023-04-04T09:38:27;95934.53;;;13.00;89.68
36630;BME280;36256;42.154;23.002;2023-04-04T09:40:55;95931.72;;;13.00;86.21
36630;BME280;36256;42.154;23.002;2023-04-04T09:43:23;95935.59;;;13.02;87.81
36630;BME280;36256;42.154;23.002;2023-04-04T09:45:52;95926.56;;;12.93;88.78
36630;BME280;36256;42.154;23.002;2023-04-04T09:48:30;95950.13;;;12.58;83.26
36630;BME280;36256;42.154;23.002;2023-04-04T09:50:58;95944.22;;;12.56;85.19
36630;BME280;36256;42.154;23.002;2023-04-04T09:53:26;95952.34;;;12.49;85.57
36630;BME280;36256;42.154;23.002;2023-04-04T09:55:54;95953.56;;;12.42;83.65
36630;BME280;36256;42.154;23.002;2023-04-04T09:58:28;95958.94;;;12.15;84.03
36630;BME280;36256;42.154;23.002;2023-04-04T10:00:58;95964.94;;;12.02;85.57
36630;BME280;36256;42.154;23.002;2023-04-04T10:03:25;95972.00;;;11.92;83.72
36630;BME280;36256;42.154;23.002;2023-04-04T10:05:59;95972.41;;;11.85;86.59
36630;BME280;36256;42.154;23.002;2023-04-04T10:08:27;95973.41;;;11.62;82.92
36630;BME280;36256;42.154;23.002;2023-04-04T10:10:59;95972.38;;;11.59;83.75
36630;BME280;36256;42.154;23.002;2023-04-04T10:13:37;95971.72;;;11.50;84.68
36630;BME280;36256;42.154;23.002;2023-04-04T10:16:08;95991.66;;;11.52;84.98
36630;BME280;36256;42.154;23.002;2023-04-04T10:18:36;95994.19;;;11.50;84.10
36630;BME280;36256;42.154;23.002;2023-04-04T10:21:05;95996.94;;;11.44;82.98
36630;BME280;36256;42.154;23.002;2023-04-04T10:23:35;95973.00;;;11.29;79.54
36630;BME280;36256;42.154;23.002;2023-04-04T10:26:04;96001.06;;;11.29;77.48
36630;BME280;36256;42.154;23.002;2023-04-04T10:28:32;96007.38;;;11.24;78.05
36630;BME280;36256;42.154;23.002;2023-04-04T10:31:20;96007.91;;;11.07;76.16
36630;BME280;36256;42.154;23.002;2023-04-04T10:34:09;96015.31;;;10.90;76.41
36630;BME280;36256;42.154;23.002;2023-04-04T10:36:49;96034.72;;;10.59;78.17
36630;BME280;36256;42.154;23.002;2023-04-04T10:41:49;96047.38;;;10.69;79.11
36630;BME280;36256;42.154;23.002;2023-04-04T10:44:39;96041.28;;;10.56;77.15
36630;BME280;36256;42.154;23.002;2023-04-04T10:47:16;96043.50;;;10.67;78.62
36630;BME280;36256;42.154;23.002;2023-04-04T10:49:44;96052.31;;;10.60;78.80
36630;BME280;36256;42.154;23.002;2023-04-04T10:52:15;96047.88;;;10.53;77.24
36630;BME280;36256;42.154;23.002;2023-04-04T10:54:42;96022.22;;;10.46;78.06
36630;BME280;36256;42.154;23.002;2023-04-04T10:57:11;96043.97;;;10.65;76.70
36630;BME280;36256;42.154;23.002;2023-04-04T11:00:06;96050.34;;;10.80;79.63
36630;BME280;36256;42.154;23.002;2023-04-04T11:05:37;96060.59;;;10.98;77.25
36630;BME280;36256;42.154;23.002;2023-04-04T11:08:17;96057.09;;;11.03;77.58
36630;BME280;36256;42.154;23.002;2023-04-04T11:10:50;96064.50;;;11.21;78.08
36630;BME280;36256;42.154;23.002;2023-04-04T11:16:10;96059.13;;;11.37;73.40
36630;BME280;36256;42.154;23.002;2023-04-04T11:21:09;96059.97;;;11.23;72.12
36630;BME280;36256;42.154;23.002;2023-04-04T11:28:57;96066.09;;;10.92;69.88
36630;BME280;36256;42.154;23.002;2023-04-04T11:31:49;96063.41;;;10.83;71.85
36630;BME280;36256;42.154;23.002;2023-04-04T11:34:36;96057.13;;;10.88;71.06
36630;BME280;36256;42.154;23.002;2023-04-04T11:37:15;96065.53;;;10.88;72.67
36630;BME280;36256;42.154;23.002;2023-04-04T11:39:47;96077.63;;;10.94;72.25
36630;BME280;36256;42.154;23.002;2023-04-04T11:42:19;96073.75;;;10.77;71.25
36630;BME280;36256;42.154;23.002;2023-04-04T11:45:03;96078.50;;;10.71;70.15
36630;BME280;36256;42.154;23.002;2023-04-04T11:47:30;96078.72;;;10.53;68.21
36630;BME280;36256;42.154;23.002;2023-04-04T11:50:00;96076.66;;;10.39;68.33
36630;BME280;36256;42.154;23.002;2023-04-04T11:52:34;96081.91;;;10.46;72.05
36630;BME280;36256;42.154;23.002;2023-04-04T11:55:01;96092.81;;;10.44;70.10
36630;BME280;36256;42.154;23.002;2023-04-04T11:57:27;96086.34;;;10.38;69.58
36630;BME280;36256;42.154;23.002;2023-04-04T11:59:54;96086.53;;;10.35;68.75
36630;BME280;36256;42.154;23.002;2023-04-04T12:02:24;96084.00;;;10.22;67.58
36630;BME280;36256;42.154;23.002;2023-04-04T12:04:57;96080.59;;;10.18;72.23
36630;BME280;36256;42.154;23.002;2023-04-04T12:07:25;96075.19;;;10.14;69.39
36630;BME280;36256;42.154;23.002;2023-04-04T12:09:51;96087.69;;;10.28;71.04
36630;BME280;36256;42.154;23.002;2023-04-04T12:12:21;96091.84;;;10.33;69.45
36630;BME280;36256;42.154;23.002;2023-04-04T12:14:47;96077.06;;;10.32;69.18
36630;BME280;36256;42.154;23.002;2023-04-04T12:17:14;96084.66;;;10.17;66.79
36630;BME280;36256;42.154;23.002;2023-04-04T12:19:42;96086.13;;;10.03;66.54
36630;BME280;36256;42.154;23.002;2023-04-04T12:22:09;96078.31;;;10.07;67.72
36630;BME280;36256;42.154;23.002;2023-04-04T12:24:36;96090.22;;;10.02;67.97
36630;BME280;36256;42.154;23.002;2023-04-04T12:27:03;96095.03;;;10.02;69.94
36630;BME280;36256;42.154;23.002;2023-04-04T12:29:31;96087.91;;;10.01;70.14
36630;BME280;36256;42.154;23.002;2023-04-04T12:32:03;96089.19;;;9.91;69.65
36630;BME280;36256;42.154;23.002;2023-04-04T12:34:32;96090.47;;;9.90;67.67
36630;BME280;36256;42.154;23.002;2023-04-04T12:37:00;96089.88;;;9.86;70.36
36630;BME280;36256;42.154;23.002;2023-04-04T12:39:28;96096.19;;;9.95;68.92
36630;BME280;36256;42.154;23.002;2023-04-04T12:42:00;96079.38;;;9.95;66.64
36630;BME280;36256;42.154;23.002;2023-04-04T12:44:31;96088.25;;;9.94;67.33
36630;BME280;36256;42.154;23.002;2023-04-04T12:47:00;96087.59;;;9.99;67.01
36630;BME280;36256;42.154;23.002;2023-04-04T12:49:40;96097.84;;;10.02;68.22
36630;BME280;36256;42.154;23.002;2023-04-04T12:52:21;96098.00;;;9.84;66.50
36630;BME280;36256;42.154;23.002;2023-04-04T12:54:49;96096.38;;;9.92;68.17
36630;BME280;36256;42.154;23.002;2023-04-04T12:57:34;96098.19;;;9.95;67.23
36630;BME280;36256;42.154;23.002;2023-04-04T13:00:02;96105.03;;;9.79;68.58
36630;BME280;36256;42.154;23.002;2023-04-04T13:02:29;96103.00;;;9.80;67.93
36630;BME280;36256;42.154;23.002;2023-04-04T13:04:57;96084.09;;;9.66;69.63
36630;BME280;36256;42.154;23.002;2023-04-04T13:07:28;96101.19;;;9.68;69.89
36630;BME280;36256;42.154;23.002;2023-04-04T13:09:58;96103.94;;;9.77;68.26
36630;BME280;36256;42.154;23.002;2023-04-04T13:12:25;96104.88;;;9.74;68.34
36630;BME280;36256;42.154;23.002;2023-04-04T13:15:03;96109.25;;;9.75;68.40